sensor_id;sensor_type;location;lat;lon;timestamp;P1;durP1;ratioP1;P2;durP2;ratioP2
51499;SDS011;39101;53.478;6.158;2023-02-13T00:02:12;15.57;;;11.43;;
51499;SDS011;39101;53.478;6.158;2023-02-13T00:04:38;19.90;;;12.47;;
51499;SDS011;39101;53.478;6.158;2023-02-13T00:07:04;16.00;;;11.30;;
51499;SDS011;39101;53.478;6.158;2023-02-13T00:09:29;18.40;;;11.63;;
51499;SDS011;39101;53.478;6.158;2023-02-13T00:11:55;16.73;;;12.17;;
51499;SDS011;39101;53.478;6.158;2023-02-13T00:14:20;20.17;;;13.00;;
51499;SDS011;39101;53.478;6.158;2023-02-13T00:16:46;20.97;;;13.13;;
51499;SDS011;39101;53.478;6.158;2023-02-13T00:19:12;19.80;;;13.70;;
51499;SDS011;39101;53.478;6.158;2023-02-13T00:21:37;22.77;;;13.77;;
51499;SDS011;39101;53.478;6.158;2023-02-13T00:24:03;21.23;;;13.40;;
51499;SDS011;39101;53.478;6.158;2023-02-13T00:26:29;23.53;;;13.87;;
51499;SDS011;39101;53.478;6.158;2023-02-13T00:28:55;20.10;;;13.30;;
51499;SDS011;39101;53.478;6.158;2023-02-13T00:31:21;20.60;;;13.33;;
51499;SDS011;39101;53.478;6.158;2023-02-13T00:33:47;22.10;;;14.33;;
51499;SDS011;39101;53.478;6.158;2023-02-13T00:36:14;20.77;;;13.23;;
51499;SDS011;39101;53.478;6.158;2023-02-13T00:38:41;20.30;;;13.63;;
51499;SDS011;39101;53.478;6.158;2023-02-13T00:41:08;22.63;;;14.63;;
51499;SDS011;39101;53.478;6.158;2023-02-13T00:43:34;21.07;;;13.00;;
51499;SDS011;39101;53.478;6.158;2023-02-13T00:46:00;20.33;;;13.73;;
51499;SDS011;39101;53.478;6.158;2023-02-13T00:48:26;20.87;;;14.17;;
51499;SDS011;39101;53.478;6.158;2023-02-13T00:50:53;21.67;;;13.30;;
51499;SDS011;39101;53.478;6.158;2023-02-13T00:53:19;21.10;;;14.33;;
51499;SDS011;39101;53.478;6.158;2023-02-13T00:55:48;20.27;;;13.63;;
51499;SDS011;39101;53.478;6.158;2023-02-13T00:58:15;23.23;;;14.57;;
51499;SDS011;39101;53.478;6.158;2023-02-13T01:00:42;22.70;;;14.13;;
51499;SDS011;39101;53.478;6.158;2023-02-13T01:03:10;25.90;;;14.93;;
51499;SDS011;39101;53.478;6.158;2023-02-13T01:05:36;22.93;;;13.67;;
51499;SDS011;39101;53.478;6.158;2023-02-13T01:08:01;23.77;;;14.70;;
51499;SDS011;39101;53.478;6.158;2023-02-13T01:10:27;22.87;;;15.03;;
51499;SDS011;39101;53.478;6.158;2023-02-13T01:12:53;23.33;;;14.30;;
51499;SDS011;39101;53.478;6.158;2023-02-13T01:15:19;20.60;;;14.13;;
51499;SDS011;39101;53.478;6.158;2023-02-13T01:17:45;20.87;;;13.87;;
51499;SDS011;39101;53.478;6.158;2023-02-13T01:20:11;24.93;;;15.63;;
51499;SDS011;39101;53.478;6.158;2023-02-13T01:22:37;23.80;;;14.70;;
51499;SDS011;39101;53.478;6.158;2023-02-13T01:25:04;25.17;;;15.50;;
51499;SDS011;39101;53.478;6.158;2023-02-13T01:27:30;25.20;;;16.17;;
51499;SDS011;39101;53.478;6.158;2023-02-13T01:29:56;26.43;;;16.63;;
51499;SDS011;39101;53.478;6.158;2023-02-13T01:32:22;26.00;;;16.00;;
51499;SDS011;39101;53.478;6.158;2023-02-13T01:34:48;28.13;;;16.70;;
51499;SDS011;39101;53.478;6.158;2023-02-13T01:37:13;22.70;;;15.00;;
51499;SDS011;39101;53.478;6.158;2023-02-13T01:39:39;20.87;;;14.63;;
51499;SDS011;39101;53.478;6.158;2023-02-13T01:42:05;23.97;;;15.67;;
51499;SDS011;39101;53.478;6.158;2023-02-13T01:44:47;27.63;;;16.83;;
51499;SDS011;39101;53.478;6.158;2023-02-13T01:47:40;25.47;;;17.30;;
51499;SDS011;39101;53.478;6.158;2023-02-13T01:52:37;23.17;;;15.70;;
51499;SDS011;39101;53.478;6.158;2023-02-13T01:55:06;27.80;;;17.27;;
51499;SDS011;39101;53.478;6.158;2023-02-13T01:57:33;27.00;;;17.40;;
51499;SDS011;39101;53.478;6.158;2023-02-13T02:00:03;25.33;;;17.13;;
51499;SDS011;39101;53.478;6.158;2023-02-13T02:02:36;26.27;;;17.67;;
51499;SDS011;39101;53.478;6.158;2023-02-13T02:05:04;29.73;;;17.47;;
51499;SDS011;39101;53.478;6.158;2023-02-13T02:07:31;26.80;;;17.50;;
51499;SDS011;39101;53.478;6.158;2023-02-13T02:09:58;28.00;;;18.10;;
51499;SDS011;39101;53.478;6.158;2023-02-13T02:15:32;29.07;;;18.20;;
51499;SDS011;39101;53.478;6.158;2023-02-13T02:17:57;25.60;;;17.17;;
51499;SDS011;39101;53.478;6.158;2023-02-13T02:23:13;26.90;;;16.90;;
51499;SDS011;39101;53.478;6.158;2023-02-13T02:28:37;27.63;;;16.57;;
51499;SDS011;39101;53.478;6.158;2023-02-13T02:45:35;30.10;;;16.57;;
51499;SDS011;39101;53.478;6.158;2023-02-13T02:48:22;27.40;;;16.47;;
51499;SDS011;39101;53.478;6.158;2023-02-13T02:51:25;26.70;;;17.13;;
51499;SDS011;39101;53.478;6.158;2023-02-13T02:57:19;26.60;;;16.83;;
51499;SDS011;39101;53.478;6.158;2023-02-13T02:59:48;27.80;;;17.07;;
51499;SDS011;39101;53.478;6.158;2023-02-13T03:02:41;25.93;;;19.00;;
51499;SDS011;39101;53.478;6.158;2023-02-13T03:05:28;26.60;;;18.07;;
51499;SDS011;39101;53.478;6.158;2023-02-13T03:08:15;26.02;;;16.70;;
51499;SDS011;39101;53.478;6.158;2023-02-13T03:11:01;26.53;;;16.43;;
51499;SDS011;39101;53.478;6.158;2023-02-13T03:13:46;25.83;;;16.97;;
51499;SDS011;39101;53.478;6.158;2023-02-13T03:16:20;28.03;;;18.43;;
51499;SDS011;39101;53.478;6.158;2023-02-13T03:19:12;27.00;;;16.43;;
51499;SDS011;39101;53.478;6.158;2023-02-13T03:22:16;24.33;;;16.03;;
51499;SDS011;39101;53.478;6.158;2023-02-13T03:27:55;26.30;;;17.03;;
51499;SDS011;39101;53.478;6.158;2023-02-13T03:36:46;26.10;;;16.67;;
51499;SDS011;39101;53.478;6.158;2023-02-13T03:42:44;28.50;;;18.30;;
51499;SDS011;39101;53.478;6.158;2023-02-13T03:45:38;29.33;;;18.77;;
51499;SDS011;39101;53.478;6.158;2023-02-13T03:48:34;26.63;;;16.50;;
51499;SDS011;39101;53.478;6.158;2023-02-13T03:51:42;27.03;;;17.57;;
51499;SDS011;39101;53.478;6.158;2023-02-13T03:54:20;29.97;;;17.97;;
51499;SDS011;39101;53.478;6.158;2023-02-13T03:57:09;28.63;;;17.73;;
51499;SDS011;39101;53.478;6.158;2023-02-13T03:59:59;25.27;;;16.38;;
51499;SDS011;39101;53.478;6.158;2023-02-13T04:02:28;26.27;;;17.03;;
51499;SDS011;39101;53.478;6.158;2023-02-13T04:04:59;27.33;;;17.43;;
51499;SDS011;39101;53.478;6.158;2023-02-13T04:07:28;26.20;;;16.80;;
51499;SDS011;39101;53.478;6.158;2023-02-13T04:09:57;25.30;;;16.70;;
51499;SDS011;39101;53.478;6.158;2023-02-13T04:15:24;33.00;;;18.07;;
51499;SDS011;39101;53.478;6.158;2023-02-13T04:18:04;26.40;;;16.10;;
51499;SDS011;39101;53.478;6.158;2023-02-13T04:20:44;27.33;;;16.93;;
51499;SDS011;39101;53.478;6.158;2023-02-13T04:23:11;24.60;;;16.53;;
51499;SDS011;39101;53.478;6.158;2023-02-13T04:25:38;29.00;;;17.27;;
51499;SDS011;39101;53.478;6.158;2023-02-13T04:28:05;26.27;;;16.90;;
51499;SDS011;39101;53.478;6.158;2023-02-13T04:30:31;29.43;;;17.67;;
51499;SDS011;39101;53.478;6.158;2023-02-13T04:32:57;26.03;;;16.60;;
51499;SDS011;39101;53.478;6.158;2023-02-13T04:35:24;26.90;;;17.43;;
51499;SDS011;39101;53.478;6.158;2023-02-13T04:37:50;26.10;;;17.00;;
51499;SDS011;39101;53.478;6.158;2023-02-13T04:40:15;29.23;;;16.33;;
51499;SDS011;39101;53.478;6.158;2023-02-13T04:42:41;27.93;;;16.53;;
51499;SDS011;39101;53.478;6.158;2023-02-13T04:45:07;27.43;;;16.03;;
51499;SDS011;39101;53.478;6.158;2023-02-13T04:47:33;22.80;;;15.47;;
51499;SDS011;39101;53.478;6.158;2023-02-13T04:49:59;24.17;;;15.70;;
51499;SDS011;39101;53.478;6.158;2023-02-13T04:52:24;24.93;;;16.47;;
51499;SDS011;39101;53.478;6.158;2023-02-13T04:54:50;25.90;;;16.20;;
51499;SDS011;39101;53.478;6.158;2023-02-13T04:57:16;24.83;;;16.13;;
51499;SDS011;39101;53.478;6.158;2023-02-13T04:59:42;27.97;;;17.87;;
51499;SDS011;39101;53.478;6.158;2023-02-13T05:02:07;27.37;;;16.60;;
51499;SDS011;39101;53.478;6.158;2023-02-13T05:04:33;28.00;;;17.27;;
51499;SDS011;39101;53.478;6.158;2023-02-13T05:06:59;25.87;;;15.60;;
51499;SDS011;39101;53.478;6.158;2023-02-13T05:09:24;24.23;;;15.67;;
51499;SDS011;39101;53.478;6.158;2023-02-13T05:11:51;26.87;;;16.20;;
51499;SDS011;39101;53.478;6.158;2023-02-13T05:14:17;25.63;;;15.83;;
51499;SDS011;39101;53.478;6.158;2023-02-13T05:16:43;25.70;;;16.03;;
51499;SDS011;39101;53.478;6.158;2023-02-13T05:19:09;26.37;;;15.63;;
51499;SDS011;39101;53.478;6.158;2023-02-13T05:21:35;26.33;;;16.20;;
51499;SDS011;39101;53.478;6.158;2023-02-13T05:24:19;26.67;;;16.37;;
51499;SDS011;39101;53.478;6.158;2023-02-13T05:26:44;28.07;;;16.13;;
51499;SDS011;39101;53.478;6.158;2023-02-13T05:29:10;22.97;;;15.90;;
51499;SDS011;39101;53.478;6.158;2023-02-13T05:32:04;29.07;;;15.40;;
51499;SDS011;39101;53.478;6.158;2023-02-13T05:34:29;27.57;;;15.73;;
51499;SDS011;39101;53.478;6.158;2023-02-13T05:36:55;23.73;;;14.67;;
51499;SDS011;39101;53.478;6.158;2023-02-13T05:39:21;28.17;;;14.83;;
51499;SDS011;39101;53.478;6.158;2023-02-13T05:41:47;22.57;;;15.07;;
51499;SDS011;39101;53.478;6.158;2023-02-13T05:44:13;30.57;;;16.53;;
51499;SDS011;39101;53.478;6.158;2023-02-13T05:46:40;26.67;;;16.80;;
51499;SDS011;39101;53.478;6.158;2023-02-13T05:49:07;27.47;;;16.23;;
51499;SDS011;39101;53.478;6.158;2023-02-13T05:51:34;25.77;;;15.97;;
51499;SDS011;39101;53.478;6.158;2023-02-13T05:54:00;29.17;;;15.80;;
51499;SDS011;39101;53.478;6.158;2023-02-13T05:56:26;25.10;;;15.57;;
51499;SDS011;39101;53.478;6.158;2023-02-13T05:58:52;34.97;;;16.63;;
51499;SDS011;39101;53.478;6.158;2023-02-13T06:01:19;26.30;;;15.70;;
51499;SDS011;39101;53.478;6.158;2023-02-13T06:03:46;26.40;;;15.50;;
51499;SDS011;39101;53.478;6.158;2023-02-13T06:06:12;25.47;;;16.23;;
51499;SDS011;39101;53.478;6.158;2023-02-13T06:08:37;28.10;;;16.37;;
51499;SDS011;39101;53.478;6.158;2023-02-13T06:11:03;29.23;;;17.10;;
51499;SDS011;39101;53.478;6.158;2023-02-13T06:13:29;29.23;;;16.07;;
51499;SDS011;39101;53.478;6.158;2023-02-13T06:15:55;27.37;;;16.87;;
51499;SDS011;39101;53.478;6.158;2023-02-13T06:18:21;27.07;;;15.80;;
51499;SDS011;39101;53.478;6.158;2023-02-13T06:20:47;27.93;;;17.60;;
51499;SDS011;39101;53.478;6.158;2023-02-13T06:23:13;30.33;;;17.20;;
51499;SDS011;39101;53.478;6.158;2023-02-13T06:25:38;29.73;;;17.03;;
51499;SDS011;39101;53.478;6.158;2023-02-13T06:28:04;24.23;;;15.60;;
51499;SDS011;39101;53.478;6.158;2023-02-13T06:30:30;25.37;;;15.47;;
51499;SDS011;39101;53.478;6.158;2023-02-13T06:32:56;24.93;;;14.97;;
51499;SDS011;39101;53.478;6.158;2023-02-13T06:35:22;28.20;;;16.77;;
51499;SDS011;39101;53.478;6.158;2023-02-13T06:37:48;28.87;;;16.10;;
51499;SDS011;39101;53.478;6.158;2023-02-13T06:40:14;27.27;;;16.93;;
51499;SDS011;39101;53.478;6.158;2023-02-13T06:42:40;26.30;;;15.93;;
51499;SDS011;39101;53.478;6.158;2023-02-13T06:45:07;34.70;;;17.37;;
51499;SDS011;39101;53.478;6.158;2023-02-13T06:47:33;26.30;;;15.83;;
51499;SDS011;39101;53.478;6.158;2023-02-13T06:49:58;28.00;;;17.53;;
51499;SDS011;39101;53.478;6.158;2023-02-13T06:52:24;32.87;;;17.80;;
51499;SDS011;39101;53.478;6.158;2023-02-13T06:54:50;26.43;;;16.50;;
51499;SDS011;39101;53.478;6.158;2023-02-13T06:57:15;29.03;;;16.53;;
51499;SDS011;39101;53.478;6.158;2023-02-13T06:59:41;29.37;;;16.17;;
51499;SDS011;39101;53.478;6.158;2023-02-13T07:02:10;29.47;;;17.20;;
51499;SDS011;39101;53.478;6.158;2023-02-13T07:04:36;32.07;;;17.70;;
51499;SDS011;39101;53.478;6.158;2023-02-13T07:07:02;28.30;;;17.50;;
51499;SDS011;39101;53.478;6.158;2023-02-13T07:09:29;29.87;;;15.87;;
51499;SDS011;39101;53.478;6.158;2023-02-13T07:11:55;37.53;;;18.47;;
51499;SDS011;39101;53.478;6.158;2023-02-13T07:14:21;28.37;;;17.93;;
51499;SDS011;39101;53.478;6.158;2023-02-13T07:16:46;27.73;;;17.83;;
51499;SDS011;39101;53.478;6.158;2023-02-13T07:19:12;30.20;;;17.10;;
51499;SDS011;39101;53.478;6.158;2023-02-13T07:21:38;30.70;;;17.77;;
51499;SDS011;39101;53.478;6.158;2023-02-13T07:24:03;30.80;;;17.40;;
51499;SDS011;39101;53.478;6.158;2023-02-13T07:26:29;30.60;;;18.33;;
51499;SDS011;39101;53.478;6.158;2023-02-13T07:28:55;26.33;;;16.30;;
51499;SDS011;39101;53.478;6.158;2023-02-13T07:31:21;30.63;;;19.07;;
51499;SDS011;39101;53.478;6.158;2023-02-13T07:33:49;30.23;;;18.00;;
51499;SDS011;39101;53.478;6.158;2023-02-13T07:36:15;27.60;;;16.57;;
51499;SDS011;39101;53.478;6.158;2023-02-13T07:38:41;31.50;;;18.23;;
51499;SDS011;39101;53.478;6.158;2023-02-13T07:41:06;32.77;;;17.20;;
51499;SDS011;39101;53.478;6.158;2023-02-13T07:43:32;28.53;;;19.10;;
51499;SDS011;39101;53.478;6.158;2023-02-13T07:46:01;28.83;;;17.37;;
51499;SDS011;39101;53.478;6.158;2023-02-13T07:48:27;34.13;;;19.47;;
51499;SDS011;39101;53.478;6.158;2023-02-13T07:50:54;31.63;;;19.03;;
51499;SDS011;39101;53.478;6.158;2023-02-13T07:55:49;37.40;;;19.37;;
51499;SDS011;39101;53.478;6.158;2023-02-13T07:58:15;33.93;;;19.60;;
51499;SDS011;39101;53.478;6.158;2023-02-13T08:00:41;38.43;;;20.63;;
51499;SDS011;39101;53.478;6.158;2023-02-13T08:03:06;35.87;;;19.93;;
51499;SDS011;39101;53.478;6.158;2023-02-13T08:05:33;34.57;;;20.03;;
51499;SDS011;39101;53.478;6.158;2023-02-13T08:07:59;35.63;;;21.57;;
51499;SDS011;39101;53.478;6.158;2023-02-13T08:10:24;34.37;;;21.30;;
51499;SDS011;39101;53.478;6.158;2023-02-13T08:13:09;36.40;;;20.93;;
51499;SDS011;39101;53.478;6.158;2023-02-13T08:15:37;35.47;;;20.57;;
51499;SDS011;39101;53.478;6.158;2023-02-13T08:18:02;35.77;;;20.47;;
51499;SDS011;39101;53.478;6.158;2023-02-13T08:20:28;34.40;;;21.40;;
51499;SDS011;39101;53.478;6.158;2023-02-13T08:22:59;36.07;;;21.57;;
51499;SDS011;39101;53.478;6.158;2023-02-13T08:25:30;36.63;;;20.60;;
51499;SDS011;39101;53.478;6.158;2023-02-13T08:27:57;34.53;;;20.97;;
51499;SDS011;39101;53.478;6.158;2023-02-13T08:30:23;36.87;;;23.13;;
51499;SDS011;39101;53.478;6.158;2023-02-13T08:32:49;33.87;;;21.50;;
51499;SDS011;39101;53.478;6.158;2023-02-13T08:35:15;37.70;;;21.40;;
51499;SDS011;39101;53.478;6.158;2023-02-13T08:37:41;33.90;;;21.00;;
51499;SDS011;39101;53.478;6.158;2023-02-13T08:40:06;39.70;;;20.43;;
51499;SDS011;39101;53.478;6.158;2023-02-13T08:42:35;37.57;;;21.53;;
51499;SDS011;39101;53.478;6.158;2023-02-13T08:45:02;36.90;;;20.87;;
51499;SDS011;39101;53.478;6.158;2023-02-13T08:47:28;35.80;;;21.53;;
51499;SDS011;39101;53.478;6.158;2023-02-13T08:49:54;35.47;;;21.33;;
51499;SDS011;39101;53.478;6.158;2023-02-13T08:52:19;35.03;;;21.60;;
51499;SDS011;39101;53.478;6.158;2023-02-13T08:54:45;37.50;;;22.90;;
51499;SDS011;39101;53.478;6.158;2023-02-13T08:57:10;40.07;;;22.70;;
51499;SDS011;39101;53.478;6.158;2023-02-13T08:59:36;36.40;;;22.37;;
51499;SDS011;39101;53.478;6.158;2023-02-13T09:02:02;35.60;;;21.83;;
51499;SDS011;39101;53.478;6.158;2023-02-13T09:04:27;37.33;;;23.03;;
51499;SDS011;39101;53.478;6.158;2023-02-13T09:06:53;35.90;;;22.27;;
51499;SDS011;39101;53.478;6.158;2023-02-13T09:09:20;39.33;;;22.67;;
51499;SDS011;39101;53.478;6.158;2023-02-13T09:11:45;41.53;;;24.03;;
51499;SDS011;39101;53.478;6.158;2023-02-13T09:14:11;35.53;;;22.10;;
51499;SDS011;39101;53.478;6.158;2023-02-13T09:16:36;34.37;;;20.97;;
51499;SDS011;39101;53.478;6.158;2023-02-13T09:19:02;40.43;;;23.70;;
51499;SDS011;39101;53.478;6.158;2023-02-13T09:21:28;36.20;;;22.87;;
51499;SDS011;39101;53.478;6.158;2023-02-13T09:23:55;35.03;;;21.20;;
51499;SDS011;39101;53.478;6.158;2023-02-13T09:26:21;35.07;;;22.03;;
51499;SDS011;39101;53.478;6.158;2023-02-13T09:28:46;38.90;;;23.53;;
51499;SDS011;39101;53.478;6.158;2023-02-13T09:31:14;36.70;;;21.70;;
51499;SDS011;39101;53.478;6.158;2023-02-13T09:33:42;34.60;;;22.00;;
51499;SDS011;39101;53.478;6.158;2023-02-13T09:36:10;39.53;;;23.53;;
51499;SDS011;39101;53.478;6.158;2023-02-13T09:38:38;37.55;;;21.40;;
51499;SDS011;39101;53.478;6.158;2023-02-13T09:46:11;38.03;;;23.60;;
51499;SDS011;39101;53.478;6.158;2023-02-13T09:48:41;37.70;;;23.00;;
51499;SDS011;39101;53.478;6.158;2023-02-13T09:51:12;35.50;;;22.23;;
51499;SDS011;39101;53.478;6.158;2023-02-13T09:53:51;36.67;;;22.70;;
51499;SDS011;39101;53.478;6.158;2023-02-13T09:59:25;36.83;;;22.87;;
51499;SDS011;39101;53.478;6.158;2023-02-13T10:02:22;35.57;;;22.47;;
51499;SDS011;39101;53.478;6.158;2023-02-13T10:08:11;35.73;;;21.60;;
51499;SDS011;39101;53.478;6.158;2023-02-13T10:16:49;35.83;;;23.33;;
51499;SDS011;39101;53.478;6.158;2023-02-13T10:19:36;36.37;;;22.73;;
51499;SDS011;39101;53.478;6.158;2023-02-13T10:22:17;37.20;;;23.20;;
51499;SDS011;39101;53.478;6.158;2023-02-13T10:24:48;35.23;;;23.30;;
51499;SDS011;39101;53.478;6.158;2023-02-13T10:27:29;36.00;;;22.07;;
51499;SDS011;39101;53.478;6.158;2023-02-13T10:30:21;35.27;;;22.07;;
51499;SDS011;39101;53.478;6.158;2023-02-13T10:38:32;38.20;;;22.00;;
51499;SDS011;39101;53.478;6.158;2023-02-13T10:41:13;34.80;;;22.50;;
51499;SDS011;39101;53.478;6.158;2023-02-13T10:47:11;37.30;;;23.07;;
51499;SDS011;39101;53.478;6.158;2023-02-13T11:00:54;37.67;;;23.57;;
51499;SDS011;39101;53.478;6.158;2023-02-13T11:03:21;35.00;;;22.10;;
51499;SDS011;39101;53.478;6.158;2023-02-13T11:05:49;36.67;;;22.07;;
51499;SDS011;39101;53.478;6.158;2023-02-13T11:08:21;36.83;;;22.27;;
51499;SDS011;39101;53.478;6.158;2023-02-13T11:10:57;37.13;;;22.53;;
51499;SDS011;39101;53.478;6.158;2023-02-13T11:13:23;35.77;;;22.70;;
51499;SDS011;39101;53.478;6.158;2023-02-13T11:18:26;36.43;;;22.13;;
51499;SDS011;39101;53.478;6.158;2023-02-13T11:20:57;32.93;;;21.77;;
51499;SDS011;39101;53.478;6.158;2023-02-13T11:28:21;33.40;;;21.27;;
51499;SDS011;39101;53.478;6.158;2023-02-13T11:30:47;35.37;;;21.73;;
51499;SDS011;39101;53.478;6.158;2023-02-13T11:35:42;31.93;;;21.00;;
51499;SDS011;39101;53.478;6.158;2023-02-13T11:40:43;37.30;;;22.30;;
51499;SDS011;39101;53.478;6.158;2023-02-13T11:43:27;38.07;;;21.70;;
51499;SDS011;39101;53.478;6.158;2023-02-13T11:46:05;35.77;;;21.43;;
51499;SDS011;39101;53.478;6.158;2023-02-13T11:48:36;33.40;;;21.70;;
51499;SDS011;39101;53.478;6.158;2023-02-13T11:51:02;37.07;;;21.80;;
51499;SDS011;39101;53.478;6.158;2023-02-13T11:53:35;32.73;;;21.30;;
51499;SDS011;39101;53.478;6.158;2023-02-13T11:56:11;31.77;;;20.73;;
51499;SDS011;39101;53.478;6.158;2023-02-13T11:58:39;34.73;;;22.03;;
51499;SDS011;39101;53.478;6.158;2023-02-13T12:07:01;34.47;;;21.30;;
51499;SDS011;39101;53.478;6.158;2023-02-13T12:09:50;32.07;;;19.43;;
51499;SDS011;39101;53.478;6.158;2023-02-13T12:12:43;34.27;;;20.43;;
51499;SDS011;39101;53.478;6.158;2023-02-13T12:15:17;35.10;;;20.53;;
51499;SDS011;39101;53.478;6.158;2023-02-13T12:17:46;30.30;;;19.97;;
51499;SDS011;39101;53.478;6.158;2023-02-13T12:53:55;32.55;;;21.65;;
51499;SDS011;39101;53.478;6.158;2023-02-13T13:02:17;36.23;;;22.43;;
51499;SDS011;39101;53.478;6.158;2023-02-13T13:16:01;30.03;;;20.17;;
51499;SDS011;39101;53.478;6.158;2023-02-13T13:26:44;31.13;;;20.83;;
51499;SDS011;39101;53.478;6.158;2023-02-13T13:29:24;35.17;;;21.45;;
51499;SDS011;39101;53.478;6.158;2023-02-13T13:31:58;33.10;;;21.58;;
51499;SDS011;39101;53.478;6.158;2023-02-13T13:34:27;33.40;;;20.97;;
51499;SDS011;39101;53.478;6.158;2023-02-13T13:50:29;32.07;;;20.83;;
51499;SDS011;39101;53.478;6.158;2023-02-13T13:56:18;31.40;;;19.30;;
51499;SDS011;39101;53.478;6.158;2023-02-13T14:03:40;29.13;;;19.83;;
51499;SDS011;39101;53.478;6.158;2023-02-13T14:06:11;29.07;;;18.83;;
51499;SDS011;39101;53.478;6.158;2023-02-13T14:11:05;31.60;;;20.13;;
51499;SDS011;39101;53.478;6.158;2023-02-13T14:13:48;44.17;;;21.43;;
51499;SDS011;39101;53.478;6.158;2023-02-13T14:16:19;34.33;;;20.83;;
51499;SDS011;39101;53.478;6.158;2023-02-13T14:24:53;30.10;;;18.90;;
51499;SDS011;39101;53.478;6.158;2023-02-13T14:27:22;31.57;;;19.23;;
51499;SDS011;39101;53.478;6.158;2023-02-13T14:29:49;30.43;;;18.30;;
51499;SDS011;39101;53.478;6.158;2023-02-13T14:32:26;30.93;;;18.93;;
51499;SDS011;39101;53.478;6.158;2023-02-13T14:35:02;32.27;;;20.73;;
51499;SDS011;39101;53.478;6.158;2023-02-13T14:37:46;34.67;;;19.93;;
51499;SDS011;39101;53.478;6.158;2023-02-13T14:40:31;28.67;;;18.13;;
51499;SDS011;39101;53.478;6.158;2023-02-13T14:46:26;32.30;;;20.90;;
51499;SDS011;39101;53.478;6.158;2023-02-13T14:48:40;28.43;;;18.57;;
51499;SDS011;39101;53.478;6.158;2023-02-13T14:51:19;33.43;;;19.57;;
51499;SDS011;39101;53.478;6.158;2023-02-13T14:53:54;29.33;;;19.60;;
51499;SDS011;39101;53.478;6.158;2023-02-13T14:56:45;29.97;;;19.10;;
51499;SDS011;39101;53.478;6.158;2023-02-13T14:59:16;40.73;;;19.77;;
51499;SDS011;39101;53.478;6.158;2023-02-13T15:01:53;31.00;;;19.97;;
51499;SDS011;39101;53.478;6.158;2023-02-13T15:04:40;32.40;;;21.07;;
51499;SDS011;39101;53.478;6.158;2023-02-13T15:07:18;30.47;;;19.57;;
51499;SDS011;39101;53.478;6.158;2023-02-13T15:09:49;30.43;;;19.60;;
51499;SDS011;39101;53.478;6.158;2023-02-13T15:12:30;34.73;;;21.00;;
51499;SDS011;39101;53.478;6.158;2023-02-13T15:15:01;35.27;;;20.07;;
51499;SDS011;39101;53.478;6.158;2023-02-13T15:17:41;32.03;;;20.60;;
51499;SDS011;39101;53.478;6.158;2023-02-13T15:22:40;34.10;;;20.60;;
51499;SDS011;39101;53.478;6.158;2023-02-13T15:27:50;35.57;;;20.30;;
51499;SDS011;39101;53.478;6.158;2023-02-13T15:30:19;35.60;;;21.63;;
51499;SDS011;39101;53.478;6.158;2023-02-13T15:32:52;35.23;;;21.13;;
51499;SDS011;39101;53.478;6.158;2023-02-13T15:37:51;36.90;;;22.83;;
51499;SDS011;39101;53.478;6.158;2023-02-13T15:40:27;33.83;;;21.10;;
51499;SDS011;39101;53.478;6.158;2023-02-13T15:42:56;36.20;;;21.67;;
51499;SDS011;39101;53.478;6.158;2023-02-13T15:45:24;36.57;;;22.43;;
51499;SDS011;39101;53.478;6.158;2023-02-13T15:47:52;35.83;;;21.83;;
51499;SDS011;39101;53.478;6.158;2023-02-13T15:50:30;34.77;;;21.97;;
51499;SDS011;39101;53.478;6.158;2023-02-13T15:52:58;39.17;;;21.70;;
51499;SDS011;39101;53.478;6.158;2023-02-13T15:55:28;38.00;;;22.37;;
51499;SDS011;39101;53.478;6.158;2023-02-13T15:57:56;37.73;;;21.77;;
51499;SDS011;39101;53.478;6.158;2023-02-13T16:00:25;35.17;;;20.07;;
51499;SDS011;39101;53.478;6.158;2023-02-13T16:02:53;35.53;;;21.47;;
51499;SDS011;39101;53.478;6.158;2023-02-13T16:05:20;36.03;;;23.07;;
51499;SDS011;39101;53.478;6.158;2023-02-13T16:07:52;39.93;;;24.67;;
51499;SDS011;39101;53.478;6.158;2023-02-13T16:12:51;37.53;;;21.97;;
51499;SDS011;39101;53.478;6.158;2023-02-13T16:15:17;39.43;;;24.57;;
51499;SDS011;39101;53.478;6.158;2023-02-13T16:17:45;37.77;;;22.93;;
51499;SDS011;39101;53.478;6.158;2023-02-13T16:25:23;41.03;;;23.20;;
51499;SDS011;39101;53.478;6.158;2023-02-13T16:28:02;37.43;;;22.07;;
51499;SDS011;39101;53.478;6.158;2023-02-13T16:30:46;40.38;;;22.10;;
51499;SDS011;39101;53.478;6.158;2023-02-13T16:33:26;39.03;;;22.13;;
51499;SDS011;39101;53.478;6.158;2023-02-13T16:35:57;35.20;;;21.93;;
51499;SDS011;39101;53.478;6.158;2023-02-13T16:38:47;34.17;;;21.73;;
51499;SDS011;39101;53.478;6.158;2023-02-13T16:43:59;36.50;;;21.50;;
51499;SDS011;39101;53.478;6.158;2023-02-13T16:46:36;40.53;;;22.53;;
51499;SDS011;39101;53.478;6.158;2023-02-13T16:49:15;37.63;;;22.13;;
51499;SDS011;39101;53.478;6.158;2023-02-13T16:56:53;38.07;;;21.87;;
51499;SDS011;39101;53.478;6.158;2023-02-13T17:02:09;41.50;;;21.57;;
51499;SDS011;39101;53.478;6.158;2023-02-13T17:04:43;40.07;;;22.20;;
51499;SDS011;39101;53.478;6.158;2023-02-13T17:07:12;35.23;;;21.33;;
51499;SDS011;39101;53.478;6.158;2023-02-13T17:10:09;32.77;;;20.00;;
51499;SDS011;39101;53.478;6.158;2023-02-13T17:12:51;43.77;;;24.30;;
51499;SDS011;39101;53.478;6.158;2023-02-13T17:15:25;37.10;;;23.50;;
51499;SDS011;39101;53.478;6.158;2023-02-13T17:17:52;42.50;;;22.67;;
51499;SDS011;39101;53.478;6.158;2023-02-13T17:20:26;36.63;;;22.90;;
51499;SDS011;39101;53.478;6.158;2023-02-13T17:22:57;37.93;;;23.17;;
51499;SDS011;39101;53.478;6.158;2023-02-13T17:25:24;39.40;;;22.37;;
51499;SDS011;39101;53.478;6.158;2023-02-13T17:27:59;40.17;;;23.83;;
51499;SDS011;39101;53.478;6.158;2023-02-13T17:30:27;39.77;;;22.87;;
51499;SDS011;39101;53.478;6.158;2023-02-13T17:32:58;46.00;;;25.27;;
51499;SDS011;39101;53.478;6.158;2023-02-13T17:35:29;42.13;;;23.70;;
51499;SDS011;39101;53.478;6.158;2023-02-13T17:37:55;39.80;;;24.03;;
51499;SDS011;39101;53.478;6.158;2023-02-13T17:40:21;41.30;;;24.13;;
51499;SDS011;39101;53.478;6.158;2023-02-13T17:42:54;40.90;;;23.40;;
51499;SDS011;39101;53.478;6.158;2023-02-13T17:45:24;45.47;;;24.23;;
51499;SDS011;39101;53.478;6.158;2023-02-13T17:47:51;46.03;;;25.43;;
51499;SDS011;39101;53.478;6.158;2023-02-13T17:50:17;48.57;;;26.10;;
51499;SDS011;39101;53.478;6.158;2023-02-13T17:52:44;43.00;;;24.07;;
51499;SDS011;39101;53.478;6.158;2023-02-13T17:55:17;45.50;;;24.47;;
51499;SDS011;39101;53.478;6.158;2023-02-13T17:57:45;50.77;;;25.73;;
51499;SDS011;39101;53.478;6.158;2023-02-13T18:00:12;48.77;;;26.67;;
51499;SDS011;39101;53.478;6.158;2023-02-13T18:02:39;45.23;;;25.07;;
51499;SDS011;39101;53.478;6.158;2023-02-13T18:05:06;46.03;;;24.97;;
51499;SDS011;39101;53.478;6.158;2023-02-13T18:07:33;47.77;;;26.03;;
51499;SDS011;39101;53.478;6.158;2023-02-13T18:09:59;46.80;;;25.50;;
51499;SDS011;39101;53.478;6.158;2023-02-13T18:12:24;44.53;;;24.43;;
51499;SDS011;39101;53.478;6.158;2023-02-13T18:14:50;44.90;;;24.10;;
51499;SDS011;39101;53.478;6.158;2023-02-13T18:17:17;45.13;;;24.40;;
51499;SDS011;39101;53.478;6.158;2023-02-13T18:19:43;56.13;;;27.47;;
51499;SDS011;39101;53.478;6.158;2023-02-13T18:22:09;48.43;;;25.20;;